createdAt,value
2022-08-07T00:01:44.256Z,2.80
2022-08-07T00:04:46.188Z,2.50
2022-08-07T00:07:40.088Z,2.30
2022-08-07T00:10:31.561Z,2.60
2022-08-07T00:13:25.671Z,2.30
2022-08-07T00:16:17.651Z,2.40
2022-08-07T00:19:26.203Z,2.30
2022-08-07T00:22:35.567Z,2.70
2022-08-07T00:25:25.156Z,2.60
2022-08-07T00:28:15.481Z,3.10
2022-08-07T00:31:12.695Z,2.70
2022-08-07T00:34:04.211Z,2.70
2022-08-07T00:36:58.024Z,2.70
2022-08-07T00:39:54.337Z,2.70
2022-08-07T00:42:42.680Z,2.30
2022-08-07T00:45:31.158Z,3.10
2022-08-07T00:48:19.727Z,3.10
2022-08-07T00:51:19.401Z,2.80
2022-08-07T00:54:07.976Z,2.30
2022-08-07T00:57:00.388Z,2.50
2022-08-07T00:59:48.938Z,3.00
2022-08-07T01:02:37.210Z,2.40
2022-08-07T01:05:29.064Z,2.50
2022-08-07T01:08:17.772Z,2.70
2022-08-07T01:11:22.920Z,3.00
2022-08-07T01:14:21.273Z,2.60
2022-08-07T01:17:16.502Z,2.50
2022-08-07T01:20:17.116Z,2.50
2022-08-07T01:23:12.758Z,2.50
2022-08-07T01:26:02.745Z,2.50
2022-08-07T01:28:53.893Z,2.70
2022-08-07T01:31:51.215Z,2.50
2022-08-07T01:34:39.465Z,2.60
2022-08-07T01:37:33.901Z,3.00
2022-08-07T01:40:24.998Z,2.90
2022-08-07T01:43:17.818Z,2.90
2022-08-07T01:46:08.397Z,2.60
2022-08-07T01:49:03.219Z,2.20
2022-08-07T01:52:02.503Z,2.40
2022-08-07T01:54:56.601Z,2.90
2022-08-07T01:58:06.944Z,2.50
2022-08-07T02:01:09.725Z,2.80
2022-08-07T02:04:36.197Z,2.60
2022-08-07T02:07:44.695Z,3.10
2022-08-07T02:10:43.180Z,2.70
2022-08-07T02:13:57.930Z,2.70
2022-08-07T02:16:51.654Z,2.40
2022-08-07T02:20:06.593Z,3.00
2022-08-07T02:22:59.877Z,2.80
2022-08-07T02:26:30.735Z,2.90
2022-08-07T02:28:58.454Z,2.40
2022-08-07T02:31:49.752Z,2.30
2022-08-07T02:34:48.893Z,2.70
2022-08-07T02:37:44.097Z,2.50
2022-08-07T02:40:35.276Z,2.20
2022-08-07T02:43:25.116Z,2.70
2022-08-07T02:46:17.584Z,2.30
2022-08-07T02:49:07.544Z,2.30
2022-08-07T02:51:59.272Z,2.40
2022-08-07T02:54:49.580Z,2.30
2022-08-07T02:57:41.497Z,2.80
2022-08-07T03:00:39.084Z,2.10
2022-08-07T03:03:42.271Z,2.60
2022-08-07T03:06:40.056Z,2.40
2022-08-07T03:09:42.343Z,2.00
2022-08-07T03:12:34.770Z,2.10
2022-08-07T03:15:47.737Z,2.10
2022-08-07T03:18:36.455Z,2.10
2022-08-07T03:21:27.749Z,2.50
2022-08-07T03:24:18.961Z,2.30
2022-08-07T03:27:30.108Z,2.10
2022-08-07T03:30:24.307Z,2.40
2022-08-07T03:33:14.723Z,2.40
2022-08-07T03:36:03.384Z,2.00
2022-08-07T03:39:05.848Z,1.90
2022-08-07T03:41:58.514Z,1.90
2022-08-07T03:44:53.674Z,2.50
2022-08-07T03:47:51.116Z,2.00
2022-08-07T03:50:43.252Z,1.90
2022-08-07T03:54:32.814Z,2.00
2022-08-07T03:57:03.605Z,2.20
2022-08-07T04:00:01.660Z,2.00
2022-08-07T04:02:52.932Z,2.20
2022-08-07T04:05:50.850Z,1.80
2022-08-07T04:08:42.424Z,2.20
2022-08-07T04:12:23.991Z,1.90
2022-08-07T04:14:47.691Z,2.10
2022-08-07T04:18:30.964Z,2.40
2022-08-07T04:20:54.572Z,2.10
2022-08-07T04:24:03.612Z,2.00
2022-08-07T04:26:52.380Z,2.00
2022-08-07T04:30:01.113Z,1.70
2022-08-07T04:33:15.712Z,1.90
2022-08-07T04:36:09.093Z,2.30
2022-08-07T04:38:57.452Z,1.90
2022-08-07T04:41:50.894Z,2.30
2022-08-07T04:44:54.799Z,1.60
2022-08-07T04:48:05.999Z,1.90
2022-08-07T04:51:49.617Z,1.70
2022-08-07T04:58:09.901Z,1.70
2022-08-07T05:02:32.712Z,1.90
2022-08-07T05:05:53.605Z,1.80
2022-08-07T05:09:00.777Z,2.00
2022-08-07T05:11:57.536Z,1.80
2022-08-07T05:14:59.106Z,1.60
2022-08-07T05:18:06.226Z,1.80
2022-08-07T05:21:01.410Z,1.90
2022-08-07T05:24:06.834Z,2.10
2022-08-07T05:26:59.484Z,1.90
2022-08-07T05:29:52.074Z,1.70
2022-08-07T05:32:41.705Z,1.50
2022-08-07T05:35:41.754Z,1.60
2022-08-07T05:39:00.201Z,1.50
2022-08-07T05:42:01.664Z,1.40
2022-08-07T05:45:04.466Z,1.50
2022-08-07T05:48:05.901Z,1.30
2022-08-07T05:51:04.624Z,1.10
2022-08-07T05:54:12.816Z,1.10
2022-08-07T05:57:03.534Z,1.30
2022-08-07T05:59:57.615Z,1.30
2022-08-07T06:02:51.998Z,1.20
2022-08-07T06:05:48.857Z,1.10
2022-08-07T06:08:42.636Z,1.30
2022-08-07T06:11:34.782Z,1.00
2022-08-07T06:14:28.703Z,1.10
2022-08-07T06:17:22.277Z,1.10
2022-08-07T06:20:12.761Z,0.90
2022-08-07T06:23:46.465Z,0.80
2022-08-07T06:26:27.459Z,0.90
2022-08-07T06:29:17.600Z,0.80
2022-08-07T06:32:06.287Z,1.00
2022-08-07T06:34:55.353Z,0.80
2022-08-07T06:37:44.689Z,1.10
2022-08-07T06:40:50.174Z,0.80
2022-08-07T06:43:46.113Z,1.10
2022-08-07T06:46:40.841Z,0.90
2022-08-07T06:49:33.382Z,0.90
2022-08-07T06:52:45.194Z,0.90
2022-08-07T06:55:47.542Z,0.90
2022-08-07T06:58:37.609Z,0.90
2022-08-07T07:01:33.325Z,0.80
2022-08-07T07:04:34.033Z,0.80
2022-08-07T07:07:59.108Z,0.90
2022-08-07T07:10:34.741Z,0.70
2022-08-07T07:13:56.483Z,0.80
2022-08-07T07:16:51.023Z,0.80
2022-08-07T07:19:56.130Z,0.90
2022-08-07T07:24:08.377Z,0.90
2022-08-07T07:26:34.471Z,0.80
2022-08-07T07:29:55.756Z,0.80
2022-08-07T07:32:24.669Z,0.80
2022-08-07T07:35:14.463Z,0.70
2022-08-07T07:38:05.744Z,0.80
2022-08-07T07:41:02.851Z,0.80
2022-08-07T07:44:14.204Z,0.70
2022-08-07T07:47:14.149Z,0.90
2022-08-07T07:50:35.716Z,0.80
2022-08-07T07:53:23.155Z,1.00
2022-08-07T07:56:15.847Z,0.90
2022-08-07T07:59:06.549Z,0.90
2022-08-07T08:02:03.942Z,0.80
2022-08-07T08:04:56.424Z,0.90
2022-08-07T08:08:00.749Z,1.10
2022-08-07T08:10:51.598Z,1.10
2022-08-07T08:13:54.592Z,1.00
2022-08-07T08:16:50.259Z,1.40
2022-08-07T08:20:17.570Z,0.80
2022-08-07T08:23:10.381Z,2.90
2022-08-07T08:26:21.822Z,1.40
2022-08-07T08:29:17.204Z,1.20
2022-08-07T08:32:18.994Z,0.90
2022-08-07T08:35:42.940Z,0.80
2022-08-07T08:38:44.531Z,0.80
2022-08-07T08:42:01.353Z,0.80
2022-08-07T08:45:01.085Z,0.90
2022-08-07T08:48:18.798Z,0.80
2022-08-07T08:51:49.890Z,0.80
2022-08-07T08:54:48.391Z,1.00
2022-08-07T08:57:45.753Z,1.80
2022-08-07T09:00:48.349Z,1.20
2022-08-07T09:04:08.103Z,0.90
2022-08-07T09:07:25.384Z,1.10
2022-08-07T09:10:34.186Z,0.70
2022-08-07T09:14:01.784Z,0.90
2022-08-07T09:17:18.645Z,0.70
2022-08-07T09:20:35.298Z,0.80
2022-08-07T09:24:33.686Z,0.90
2022-08-07T09:27:30.317Z,0.80
2022-08-07T09:30:20.602Z,0.80
2022-08-07T09:33:57.013Z,0.70
2022-08-07T09:37:01.407Z,0.70
2022-08-07T09:40:06.237Z,1.00
2022-08-07T09:44:06.000Z,0.80
2022-08-07T09:47:49.711Z,1.00
2022-08-07T09:51:00.872Z,0.70
2022-08-07T09:53:57.050Z,0.60
2022-08-07T09:57:46.622Z,1.10
2022-08-07T10:00:52.108Z,0.80
2022-08-07T10:04:17.059Z,0.90
2022-08-07T10:08:09.704Z,0.90
2022-08-07T10:12:03.154Z,0.80
2022-08-07T10:14:54.977Z,0.80
2022-08-07T10:18:26.432Z,1.10
2022-08-07T10:22:16.101Z,1.10
2022-08-07T10:25:42.567Z,1.10
2022-08-07T10:28:41.732Z,1.30
2022-08-07T10:32:04.587Z,1.00
2022-08-07T10:35:55.090Z,1.20
2022-08-07T10:39:05.470Z,1.00
2022-08-07T10:42:38.987Z,1.10
2022-08-07T10:45:58.079Z,1.10
2022-08-07T10:49:15.947Z,1.10
2022-08-07T10:52:22.109Z,1.00
2022-08-07T10:55:53.533Z,1.00
2022-08-07T10:59:21.258Z,0.90
2022-08-07T11:03:03.939Z,0.80
2022-08-07T11:06:15.756Z,0.90
2022-08-07T11:10:07.979Z,0.80
2022-08-07T11:14:41.943Z,0.90
2022-08-07T11:16:48.000Z,0.70
2022-08-07T11:19:55.200Z,0.80
2022-08-07T11:23:36.506Z,0.90
2022-08-07T11:26:43.435Z,0.90
2022-08-07T11:29:53.875Z,1.20
2022-08-07T11:33:19.239Z,1.00
2022-08-07T11:37:03.007Z,1.40
2022-08-07T11:40:10.138Z,0.80
2022-08-07T11:43:41.711Z,0.70
2022-08-07T11:47:02.840Z,1.00
2022-08-07T11:50:44.751Z,0.70
2022-08-07T11:54:54.434Z,1.00
2022-08-07T11:58:16.085Z,0.80
2022-08-07T12:01:06.781Z,1.30
2022-08-07T12:04:37.915Z,0.90
2022-08-07T12:07:39.231Z,1.20
2022-08-07T12:10:49.263Z,0.90
2022-08-07T12:14:08.682Z,0.70
2022-08-07T12:17:07.158Z,0.80
2022-08-07T12:20:12.917Z,1.10
2022-08-07T12:24:07.615Z,0.90
2022-08-07T12:27:03.481Z,1.30
2022-08-07T12:30:07.471Z,1.00
2022-08-07T12:33:18.645Z,0.90
2022-08-07T12:36:11.024Z,1.00
2022-08-07T12:39:00.132Z,1.20
2022-08-07T12:41:51.840Z,0.90
2022-08-07T12:44:47.178Z,1.30
2022-08-07T12:48:28.500Z,1.00
2022-08-07T12:51:33.207Z,1.10
2022-08-07T12:55:16.371Z,1.00
2022-08-07T12:58:12.854Z,0.80
2022-08-07T13:01:06.486Z,1.00
2022-08-07T13:04:57.696Z,1.20
2022-08-07T13:08:32.762Z,1.30
2022-08-07T13:12:03.583Z,2.30
2022-08-07T13:15:31.619Z,1.50
2022-08-07T13:18:54.804Z,1.20
2022-08-07T13:22:31.649Z,1.00
2022-08-07T13:25:45.961Z,3.40
2022-08-07T13:28:59.046Z,1.60
2022-08-07T13:32:31.052Z,1.30
2022-08-07T13:36:00.626Z,1.20
2022-08-07T13:39:48.954Z,1.10
2022-08-07T13:42:37.582Z,1.40
2022-08-07T13:46:12.412Z,1.30
2022-08-07T13:48:51.979Z,1.20
2022-08-07T13:52:16.382Z,1.10
2022-08-07T13:55:00.617Z,1.30
2022-08-07T13:58:02.031Z,1.10
2022-08-07T14:00:54.775Z,1.10
2022-08-07T14:04:07.114Z,1.10
2022-08-07T14:06:55.403Z,1.40
2022-08-07T14:10:02.376Z,1.20
2022-08-07T14:13:01.471Z,1.10
2022-08-07T14:16:00.492Z,1.30
2022-08-07T14:18:57.311Z,1.00
2022-08-07T14:22:00.967Z,1.20
2022-08-07T14:24:53.611Z,1.30
2022-08-07T14:28:12.356Z,1.80
2022-08-07T14:30:58.440Z,1.80
2022-08-07T14:33:49.815Z,1.30
2022-08-07T14:36:39.285Z,1.10
2022-08-07T14:40:15.559Z,1.40
2022-08-07T14:45:51.621Z,1.30
2022-08-07T14:48:48.398Z,1.40
2022-08-07T14:54:49.719Z,1.70
2022-08-07T14:57:54.678Z,1.70
2022-08-07T15:00:51.548Z,1.50
2022-08-07T15:03:52.576Z,1.20
2022-08-07T15:06:48.970Z,2.00
2022-08-07T15:13:06.400Z,1.80
2022-08-07T15:20:31.500Z,1.80
2022-08-07T15:26:22.555Z,1.50
2022-08-07T15:30:06.467Z,1.40
2022-08-07T15:32:39.938Z,1.50
2022-08-07T15:38:58.928Z,1.90
2022-08-07T15:42:46.616Z,1.60
2022-08-07T15:45:55.467Z,1.70
2022-08-07T15:49:03.682Z,1.60
2022-08-07T15:54:48.439Z,1.90
2022-08-07T15:57:40.000Z,8.20
2022-08-07T16:00:44.315Z,3.10
2022-08-07T16:03:46.980Z,1.90
2022-08-07T16:07:04.752Z,1.80
2022-08-07T16:10:14.944Z,1.80
2022-08-07T16:13:59.301Z,1.80
2022-08-07T16:18:03.933Z,1.80
2022-08-07T16:22:03.301Z,1.60
2022-08-07T16:25:55.528Z,2.00
2022-08-07T16:30:07.090Z,1.70
2022-08-07T16:32:34.476Z,1.90
2022-08-07T16:35:56.902Z,1.60
2022-08-07T16:39:33.735Z,1.30
2022-08-07T16:42:58.117Z,1.20
2022-08-07T16:47:04.448Z,1.70
2022-08-07T16:50:28.441Z,1.50
2022-08-07T16:54:08.882Z,1.50
2022-08-07T16:58:01.752Z,1.70
2022-08-07T17:01:08.062Z,1.60
2022-08-07T17:04:24.689Z,1.60
2022-08-07T17:07:55.230Z,1.50
2022-08-07T17:10:54.512Z,1.70
2022-08-07T17:14:19.386Z,1.60
2022-08-07T17:17:44.060Z,2.00
2022-08-07T17:20:41.954Z,2.00
2022-08-07T17:23:54.125Z,2.10
2022-08-07T17:26:59.658Z,1.90
2022-08-07T17:30:16.192Z,2.90
2022-08-07T17:34:09.249Z,2.60
2022-08-07T17:36:57.952Z,2.70
2022-08-07T17:40:30.611Z,2.10
2022-08-07T17:44:01.431Z,2.50
2022-08-07T17:46:55.101Z,2.30
2022-08-07T17:49:56.952Z,2.20
2022-08-07T17:54:01.552Z,2.50
2022-08-07T17:56:36.528Z,2.40
2022-08-07T18:00:06.002Z,1.90
2022-08-07T18:03:18.478Z,2.10
2022-08-07T18:06:16.677Z,3.50
2022-08-07T18:10:04.410Z,2.60
2022-08-07T18:12:59.806Z,2.60
2022-08-07T18:16:09.320Z,2.30
2022-08-07T18:21:07.526Z,2.40
2022-08-07T18:22:47.679Z,2.40
2022-08-07T18:25:41.895Z,2.30
2022-08-07T18:30:06.173Z,2.30
2022-08-07T18:32:55.637Z,2.30
2022-08-07T18:36:54.410Z,2.40
2022-08-07T18:40:17.933Z,2.30
2022-08-07T18:44:00.681Z,2.20
2022-08-07T18:47:25.494Z,2.30
2022-08-07T18:50:49.568Z,2.60
2022-08-07T18:54:30.967Z,2.70
2022-08-07T18:57:33.489Z,2.80
2022-08-07T19:02:18.880Z,2.80
2022-08-07T19:04:57.855Z,2.50
2022-08-07T19:08:28.046Z,2.70
2022-08-07T19:11:36.639Z,3.10
2022-08-07T19:16:05.826Z,2.60
2022-08-07T19:18:45.080Z,2.50
2022-08-07T19:22:04.866Z,2.70
2022-08-07T19:24:54.118Z,2.70
2022-08-07T19:28:58.737Z,2.90
2022-08-07T19:31:37.312Z,2.90
2022-08-07T19:34:11.871Z,3.60
2022-08-07T19:37:10.035Z,3.00
2022-08-07T19:40:09.770Z,2.90
2022-08-07T19:42:57.559Z,3.00
2022-08-07T19:46:07.246Z,3.00
2022-08-07T19:49:17.792Z,2.80
2022-08-07T19:52:32.168Z,7.30
2022-08-07T19:55:24.188Z,4.80
2022-08-07T19:58:15.872Z,4.20
2022-08-07T20:01:04.071Z,3.70
2022-08-07T20:04:04.450Z,3.40
2022-08-07T20:06:56.645Z,3.30
2022-08-07T20:10:35.427Z,3.60
2022-08-07T20:13:05.876Z,3.10
2022-08-07T20:15:57.846Z,3.70
2022-08-07T20:18:49.165Z,4.00
2022-08-07T20:21:47.517Z,3.50
2022-08-07T20:24:38.681Z,3.60
2022-08-07T20:27:47.662Z,3.60
2022-08-07T20:30:46.865Z,3.80
2022-08-07T20:33:38.280Z,3.50
2022-08-07T20:36:31.495Z,3.80
2022-08-07T20:40:04.021Z,4.10
2022-08-07T20:42:56.227Z,3.70
2022-08-07T20:46:25.920Z,4.10
2022-08-07T20:49:59.006Z,4.10
2022-08-07T20:52:29.910Z,3.70
2022-08-07T20:55:23.852Z,3.50
2022-08-07T20:58:19.491Z,3.80
2022-08-07T21:01:19.416Z,4.10
2022-08-07T21:04:21.823Z,3.60
2022-08-07T21:07:14.579Z,4.00
2022-08-07T21:10:11.625Z,3.80
2022-08-07T21:13:05.212Z,3.90
2022-08-07T21:16:00.967Z,3.70
2022-08-07T21:18:51.275Z,3.90
2022-08-07T21:21:49.298Z,4.00
2022-08-07T21:25:29.150Z,3.90
2022-08-07T21:28:48.262Z,3.90
2022-08-07T21:32:47.763Z,3.60
2022-08-07T21:36:06.088Z,3.60
2022-08-07T21:38:55.527Z,4.20
2022-08-07T21:42:42.543Z,4.00
2022-08-07T21:46:09.225Z,4.00
2022-08-07T21:49:17.992Z,4.20
2022-08-07T21:52:44.421Z,3.60
2022-08-07T21:55:56.143Z,4.20
2022-08-07T21:59:04.626Z,3.90
2022-08-07T22:02:10.420Z,4.00
2022-08-07T22:05:04.034Z,4.20
2022-08-07T22:07:58.685Z,4.00
2022-08-07T22:10:58.258Z,9.00
2022-08-07T22:13:54.890Z,5.00
2022-08-07T22:16:56.548Z,5.10
2022-08-07T22:20:22.959Z,4.20
2022-08-07T22:23:26.657Z,4.00
2022-08-07T22:26:30.555Z,4.50
2022-08-07T22:29:54.825Z,4.40
2022-08-07T22:33:15.335Z,4.70
2022-08-07T22:36:34.362Z,4.20
2022-08-07T22:39:52.473Z,4.60
2022-08-07T22:42:44.932Z,4.50
2022-08-07T22:46:40.932Z,4.40
2022-08-07T22:49:54.178Z,4.50
2022-08-07T22:54:07.643Z,4.30
2022-08-07T22:57:04.000Z,4.50
2022-08-07T23:00:14.907Z,4.80
2022-08-07T23:03:29.041Z,4.30
2022-08-07T23:06:57.975Z,4.90
2022-08-07T23:10:36.413Z,4.90
2022-08-07T23:14:16.491Z,4.80
2022-08-07T23:17:29.779Z,4.20
2022-08-07T23:21:02.886Z,3.80
2022-08-07T23:24:45.431Z,4.50
2022-08-07T23:28:28.477Z,4.50
2022-08-07T23:32:49.621Z,5.10
2022-08-07T23:35:16.783Z,4.00
2022-08-07T23:38:45.285Z,4.20
2022-08-07T23:42:05.107Z,3.60
2022-08-07T23:45:33.488Z,4.00
2022-08-07T23:48:50.600Z,4.00
2022-08-07T23:53:00.113Z,5.00
2022-08-07T23:55:05.547Z,4.20
2022-08-07T23:58:18.783Z,4.30
